sensor_id;sensor_type;location;lat;lon;timestamp;pressure;altitude;pressure_sealevel;temperature;humidity
48156;BME280;35568;48.104;11.782;2023-07-29T00:00:12;95162.91;;;16.12;61.54
48156;BME280;35568;48.104;11.782;2023-07-29T00:02:39;95159.82;;;16.06;61.78
48156;BME280;35568;48.104;11.782;2023-07-29T00:05:07;95158.33;;;16.11;61.89
48156;BME280;35568;48.104;11.782;2023-07-29T00:07:34;95154.26;;;16.16;61.59
48156;BME280;35568;48.104;11.782;2023-07-29T00:10:01;95151.82;;;16.23;61.54
48156;BME280;35568;48.104;11.782;2023-07-29T00:12:27;95145.95;;;15.98;61.50
48156;BME280;35568;48.104;11.782;2023-07-29T00:14:54;95142.38;;;16.13;61.33
48156;BME280;35568;48.104;11.782;2023-07-29T00:17:21;95146.52;;;15.79;61.57
48156;BME280;35568;48.104;11.782;2023-07-29T00:19:48;95145.06;;;16.33;61.51
48156;BME280;35568;48.104;11.782;2023-07-29T00:22:14;95142.75;;;16.12;61.34
48156;BME280;35568;48.104;11.782;2023-07-29T00:24:41;95143.88;;;16.02;61.40
48156;BME280;35568;48.104;11.782;2023-07-29T00:27:08;95140.50;;;16.32;61.47
48156;BME280;35568;48.104;11.782;2023-07-29T00:29:35;95143.49;;;15.80;61.37
48156;BME280;35568;48.104;11.782;2023-07-29T00:32:02;95140.03;;;16.43;61.27
48156;BME280;35568;48.104;11.782;2023-07-29T00:34:28;95145.05;;;16.29;61.00
48156;BME280;35568;48.104;11.782;2023-07-29T00:36:55;95141.43;;;16.49;61.00
48156;BME280;35568;48.104;11.782;2023-07-29T00:39:22;95145.10;;;16.36;60.86
48156;BME280;35568;48.104;11.782;2023-07-29T00:41:49;95142.55;;;16.34;60.69
48156;BME280;35568;48.104;11.782;2023-07-29T00:44:16;95142.08;;;16.45;60.42
48156;BME280;35568;48.104;11.782;2023-07-29T00:46:46;95140.68;;;16.47;60.27
48156;BME280;35568;48.104;11.782;2023-07-29T00:49:12;95140.43;;;16.37;60.43
48156;BME280;35568;48.104;11.782;2023-07-29T00:51:39;95137.92;;;16.36;60.62
48156;BME280;35568;48.104;11.782;2023-07-29T00:54:06;95138.67;;;16.25;60.60
48156;BME280;35568;48.104;11.782;2023-07-29T00:56:33;95134.62;;;16.14;60.86
48156;BME280;35568;48.104;11.782;2023-07-29T00:59:01;95132.66;;;16.50;60.82
48156;BME280;35568;48.104;11.782;2023-07-29T01:01:28;95131.78;;;16.34;60.76
48156;BME280;35568;48.104;11.782;2023-07-29T01:03:56;95133.66;;;16.54;60.80
48156;BME280;35568;48.104;11.782;2023-07-29T01:06:29;95131.61;;;16.61;60.73
48156;BME280;35568;48.104;11.782;2023-07-29T01:09:03;95127.57;;;16.46;60.51
48156;BME280;35568;48.104;11.782;2023-07-29T01:11:38;95124.36;;;16.93;60.05
48156;BME280;35568;48.104;11.782;2023-07-29T01:14:16;95127.86;;;16.79;59.67
48156;BME280;35568;48.104;11.782;2023-07-29T01:16:50;95130.49;;;16.76;60.11
48156;BME280;35568;48.104;11.782;2023-07-29T01:19:34;95128.01;;;16.91;60.15
48156;BME280;35568;48.104;11.782;2023-07-29T01:22:11;95129.58;;;16.36;60.11
48156;BME280;35568;48.104;11.782;2023-07-29T01:24:38;95127.36;;;16.48;60.24
48156;BME280;35568;48.104;11.782;2023-07-29T01:27:06;95121.20;;;16.69;60.33
48156;BME280;35568;48.104;11.782;2023-07-29T01:29:33;95117.82;;;16.24;60.33
48156;BME280;35568;48.104;11.782;2023-07-29T01:32:03;95113.44;;;16.63;59.87
48156;BME280;35568;48.104;11.782;2023-07-29T01:34:36;95112.30;;;16.49;60.09
48156;BME280;35568;48.104;11.782;2023-07-29T01:37:04;95106.50;;;16.51;59.70
48156;BME280;35568;48.104;11.782;2023-07-29T01:39:35;95105.02;;;16.84;59.44
48156;BME280;35568;48.104;11.782;2023-07-29T01:42:04;95112.03;;;16.87;59.19
48156;BME280;35568;48.104;11.782;2023-07-29T01:44:32;95114.04;;;16.31;59.89
48156;BME280;35568;48.104;11.782;2023-07-29T01:46:59;95111.86;;;16.42;59.75
48156;BME280;35568;48.104;11.782;2023-07-29T01:49:27;95111.68;;;16.10;59.87
48156;BME280;35568;48.104;11.782;2023-07-29T01:51:53;95109.29;;;16.57;59.69
48156;BME280;35568;48.104;11.782;2023-07-29T01:54:20;95111.04;;;16.60;59.87
48156;BME280;35568;48.104;11.782;2023-07-29T01:56:47;95108.21;;;16.60;59.49
48156;BME280;35568;48.104;11.782;2023-07-29T01:59:14;95107.74;;;16.39;59.18
48156;BME280;35568;48.104;11.782;2023-07-29T02:01:40;95110.58;;;16.69;59.24
48156;BME280;35568;48.104;11.782;2023-07-29T02:04:07;95103.57;;;16.04;59.16
48156;BME280;35568;48.104;11.782;2023-07-29T02:06:34;95102.58;;;16.38;59.30
48156;BME280;35568;48.104;11.782;2023-07-29T02:09:01;95100.91;;;16.53;59.31
48156;BME280;35568;48.104;11.782;2023-07-29T02:11:27;95101.07;;;16.49;59.35
48156;BME280;35568;48.104;11.782;2023-07-29T02:13:55;95097.91;;;16.50;59.07
48156;BME280;35568;48.104;11.782;2023-07-29T02:16:22;95095.16;;;16.45;59.08
48156;BME280;35568;48.104;11.782;2023-07-29T02:18:49;95092.14;;;16.20;59.79
48156;BME280;35568;48.104;11.782;2023-07-29T02:21:16;95092.08;;;16.38;59.28
48156;BME280;35568;48.104;11.782;2023-07-29T02:23:43;95089.14;;;16.27;59.55
48156;BME280;35568;48.104;11.782;2023-07-29T02:26:11;95088.68;;;15.98;59.33
48156;BME280;35568;48.104;11.782;2023-07-29T02:28:37;95090.07;;;16.02;59.14
48156;BME280;35568;48.104;11.782;2023-07-29T02:31:15;95087.63;;;16.35;59.00
48156;BME280;35568;48.104;11.782;2023-07-29T02:33:43;95088.62;;;16.08;58.75
48156;BME280;35568;48.104;11.782;2023-07-29T02:36:12;95092.74;;;16.14;58.61
48156;BME280;35568;48.104;11.782;2023-07-29T02:38:39;95095.84;;;16.02;58.61
48156;BME280;35568;48.104;11.782;2023-07-29T02:41:07;95097.77;;;16.15;59.00
48156;BME280;35568;48.104;11.782;2023-07-29T02:43:34;95099.68;;;16.09;59.19
48156;BME280;35568;48.104;11.782;2023-07-29T02:46:01;95096.79;;;16.15;59.23
48156;BME280;35568;48.104;11.782;2023-07-29T02:48:28;95101.47;;;16.40;58.99
48156;BME280;35568;48.104;11.782;2023-07-29T02:50:56;95108.97;;;16.43;59.70
48156;BME280;35568;48.104;11.782;2023-07-29T02:53:22;95108.98;;;15.76;60.15
48156;BME280;35568;48.104;11.782;2023-07-29T02:55:49;95111.86;;;15.76;60.22
48156;BME280;35568;48.104;11.782;2023-07-29T02:58:16;95112.44;;;15.56;60.58
48156;BME280;35568;48.104;11.782;2023-07-29T03:03:01;95110.73;;;15.58;60.44
48156;BME280;35568;48.104;11.782;2023-07-29T03:05:27;95110.86;;;15.88;60.35
48156;BME280;35568;48.104;11.782;2023-07-29T03:07:55;95110.13;;;15.64;60.03
48156;BME280;35568;48.104;11.782;2023-07-29T03:10:21;95110.87;;;15.89;59.94
48156;BME280;35568;48.104;11.782;2023-07-29T03:12:48;95108.20;;;15.88;59.84
48156;BME280;35568;48.104;11.782;2023-07-29T03:15:15;95099.19;;;15.94;59.60
48156;BME280;35568;48.104;11.782;2023-07-29T03:17:42;95101.04;;;16.00;59.54
48156;BME280;35568;48.104;11.782;2023-07-29T03:20:09;95101.02;;;15.85;59.84
48156;BME280;35568;48.104;11.782;2023-07-29T03:22:36;95102.71;;;15.54;60.08
48156;BME280;35568;48.104;11.782;2023-07-29T03:25:03;95096.68;;;15.78;59.98
48156;BME280;35568;48.104;11.782;2023-07-29T03:27:30;95099.63;;;15.87;59.97
48156;BME280;35568;48.104;11.782;2023-07-29T03:29:57;95101.88;;;15.77;60.14
48156;BME280;35568;48.104;11.782;2023-07-29T03:32:24;95098.21;;;15.69;60.30
48156;BME280;35568;48.104;11.782;2023-07-29T03:34:51;95097.85;;;15.85;59.85
48156;BME280;35568;48.104;11.782;2023-07-29T03:37:17;95108.73;;;15.50;60.43
48156;BME280;35568;48.104;11.782;2023-07-29T03:39:44;95112.06;;;15.22;61.29
48156;BME280;35568;48.104;11.782;2023-07-29T03:42:11;95102.86;;;15.44;60.90
48156;BME280;35568;48.104;11.782;2023-07-29T03:44:38;95097.06;;;15.59;60.79
48156;BME280;35568;48.104;11.782;2023-07-29T03:47:05;95095.81;;;15.82;60.29
48156;BME280;35568;48.104;11.782;2023-07-29T03:49:32;95095.37;;;15.96;60.01
48156;BME280;35568;48.104;11.782;2023-07-29T03:51:59;95097.55;;;15.89;59.93
48156;BME280;35568;48.104;11.782;2023-07-29T03:54:26;95096.88;;;15.81;60.33
48156;BME280;35568;48.104;11.782;2023-07-29T03:56:53;95095.97;;;16.00;60.01
48156;BME280;35568;48.104;11.782;2023-07-29T03:59:19;95095.66;;;16.06;59.93
48156;BME280;35568;48.104;11.782;2023-07-29T04:01:46;95098.72;;;16.22;59.86
48156;BME280;35568;48.104;11.782;2023-07-29T04:04:13;95100.11;;;16.26;59.63
48156;BME280;35568;48.104;11.782;2023-07-29T04:06:40;95106.38;;;16.21;59.59
48156;BME280;35568;48.104;11.782;2023-07-29T04:09:06;95103.94;;;16.13;60.05
48156;BME280;35568;48.104;11.782;2023-07-29T04:11:33;95109.99;;;16.30;59.82
48156;BME280;35568;48.104;11.782;2023-07-29T04:14:00;95106.25;;;16.14;59.61
48156;BME280;35568;48.104;11.782;2023-07-29T04:16:27;95099.17;;;16.38;59.71
48156;BME280;35568;48.104;11.782;2023-07-29T04:18:54;95094.84;;;16.62;59.18
48156;BME280;35568;48.104;11.782;2023-07-29T04:21:21;95092.67;;;16.65;58.82
48156;BME280;35568;48.104;11.782;2023-07-29T04:23:48;95091.23;;;16.64;58.96
48156;BME280;35568;48.104;11.782;2023-07-29T04:26:15;95081.71;;;16.70;58.62
48156;BME280;35568;48.104;11.782;2023-07-29T04:28:42;95076.36;;;16.44;58.71
48156;BME280;35568;48.104;11.782;2023-07-29T04:31:09;95068.73;;;16.56;58.63
48156;BME280;35568;48.104;11.782;2023-07-29T04:33:36;95056.46;;;16.62;58.44
48156;BME280;35568;48.104;11.782;2023-07-29T04:36:03;95059.88;;;16.60;58.95
48156;BME280;35568;48.104;11.782;2023-07-29T04:38:32;95057.17;;;16.65;58.83
48156;BME280;35568;48.104;11.782;2023-07-29T04:40:59;95058.65;;;16.71;58.53
48156;BME280;35568;48.104;11.782;2023-07-29T04:43:27;95057.18;;;17.04;58.57
48156;BME280;35568;48.104;11.782;2023-07-29T04:45:53;95057.14;;;16.88;58.25
48156;BME280;35568;48.104;11.782;2023-07-29T04:48:20;95056.96;;;17.17;58.38
48156;BME280;35568;48.104;11.782;2023-07-29T04:50:47;95054.78;;;17.10;57.92
48156;BME280;35568;48.104;11.782;2023-07-29T04:53:13;95060.03;;;17.01;58.20
48156;BME280;35568;48.104;11.782;2023-07-29T04:55:41;95063.03;;;17.12;58.14
48156;BME280;35568;48.104;11.782;2023-07-29T04:58:08;95059.45;;;17.24;58.42
48156;BME280;35568;48.104;11.782;2023-07-29T05:00:35;95056.91;;;17.32;58.24
48156;BME280;35568;48.104;11.782;2023-07-29T05:03:01;95059.71;;;17.33;58.29
48156;BME280;35568;48.104;11.782;2023-07-29T05:05:28;95059.87;;;17.38;58.10
48156;BME280;35568;48.104;11.782;2023-07-29T05:07:55;95060.09;;;17.38;58.03
48156;BME280;35568;48.104;11.782;2023-07-29T05:10:22;95059.46;;;17.40;58.56
48156;BME280;35568;48.104;11.782;2023-07-29T05:12:49;95051.62;;;17.43;58.36
48156;BME280;35568;48.104;11.782;2023-07-29T05:15:15;95052.53;;;17.87;58.09
48156;BME280;35568;48.104;11.782;2023-07-29T05:17:42;95053.15;;;17.88;57.51
48156;BME280;35568;48.104;11.782;2023-07-29T05:20:09;95046.84;;;18.14;57.18
48156;BME280;35568;48.104;11.782;2023-07-29T05:22:36;95046.79;;;18.21;56.91
48156;BME280;35568;48.104;11.782;2023-07-29T05:25:04;95042.73;;;18.45;56.43
48156;BME280;35568;48.104;11.782;2023-07-29T05:27:32;95037.44;;;18.73;55.96
48156;BME280;35568;48.104;11.782;2023-07-29T05:29:58;95034.35;;;19.11;55.35
48156;BME280;35568;48.104;11.782;2023-07-29T05:32:25;95031.78;;;19.02;56.13
48156;BME280;35568;48.104;11.782;2023-07-29T05:34:52;95029.38;;;19.08;56.22
48156;BME280;35568;48.104;11.782;2023-07-29T05:37:19;95031.04;;;18.87;55.99
48156;BME280;35568;48.104;11.782;2023-07-29T05:39:46;95033.26;;;19.06;56.05
48156;BME280;35568;48.104;11.782;2023-07-29T05:42:12;95034.85;;;18.84;56.11
48156;BME280;35568;48.104;11.782;2023-07-29T05:44:39;95037.39;;;19.17;55.71
48156;BME280;35568;48.104;11.782;2023-07-29T05:47:06;95039.30;;;19.08;56.25
48156;BME280;35568;48.104;11.782;2023-07-29T05:49:32;95044.55;;;19.22;55.58
48156;BME280;35568;48.104;11.782;2023-07-29T05:51:59;95053.74;;;19.12;55.54
48156;BME280;35568;48.104;11.782;2023-07-29T05:54:26;95055.92;;;19.17;55.62
48156;BME280;35568;48.104;11.782;2023-07-29T05:56:53;95057.65;;;19.36;55.48
48156;BME280;35568;48.104;11.782;2023-07-29T05:59:20;95056.70;;;19.38;55.52
48156;BME280;35568;48.104;11.782;2023-07-29T06:01:47;95057.58;;;19.74;55.21
48156;BME280;35568;48.104;11.782;2023-07-29T06:04:14;95058.64;;;19.76;55.42
48156;BME280;35568;48.104;11.782;2023-07-29T06:06:41;95063.39;;;19.53;55.40
48156;BME280;35568;48.104;11.782;2023-07-29T06:09:07;95068.98;;;19.45;55.20
48156;BME280;35568;48.104;11.782;2023-07-29T06:11:34;95068.11;;;19.00;55.65
48156;BME280;35568;48.104;11.782;2023-07-29T06:14:01;95069.03;;;19.27;55.93
48156;BME280;35568;48.104;11.782;2023-07-29T06:16:28;95081.87;;;19.25;55.71
48156;BME280;35568;48.104;11.782;2023-07-29T06:18:54;95115.13;;;18.81;56.15
48156;BME280;35568;48.104;11.782;2023-07-29T06:21:21;95140.92;;;18.74;56.63
48156;BME280;35568;48.104;11.782;2023-07-29T06:23:48;95117.46;;;18.64;57.60
48156;BME280;35568;48.104;11.782;2023-07-29T06:26:15;95095.40;;;18.29;58.93
48156;BME280;35568;48.104;11.782;2023-07-29T06:28:42;95082.74;;;18.28;59.00
48156;BME280;35568;48.104;11.782;2023-07-29T06:31:08;95064.09;;;18.48;58.87
48156;BME280;35568;48.104;11.782;2023-07-29T06:33:35;95054.72;;;18.43;58.62
48156;BME280;35568;48.104;11.782;2023-07-29T06:36:02;95046.32;;;18.46;58.41
48156;BME280;35568;48.104;11.782;2023-07-29T06:38:30;95051.15;;;18.54;58.73
48156;BME280;35568;48.104;11.782;2023-07-29T06:40:57;95040.31;;;18.40;58.74
48156;BME280;35568;48.104;11.782;2023-07-29T06:43:24;95040.94;;;18.70;58.62
48156;BME280;35568;48.104;11.782;2023-07-29T06:45:51;95062.88;;;18.56;59.08
48156;BME280;35568;48.104;11.782;2023-07-29T06:48:17;95069.10;;;18.18;59.77
48156;BME280;35568;48.104;11.782;2023-07-29T06:50:44;95076.27;;;18.23;59.82
48156;BME280;35568;48.104;11.782;2023-07-29T06:53:11;95083.18;;;18.71;59.61
48156;BME280;35568;48.104;11.782;2023-07-29T06:55:38;95091.75;;;18.67;59.13
48156;BME280;35568;48.104;11.782;2023-07-29T06:58:04;95098.08;;;18.35;59.47
48156;BME280;35568;48.104;11.782;2023-07-29T07:00:31;95123.96;;;18.42;59.89
48156;BME280;35568;48.104;11.782;2023-07-29T07:02:58;95128.01;;;18.47;59.62
48156;BME280;35568;48.104;11.782;2023-07-29T07:05:25;95138.86;;;18.40;59.76
48156;BME280;35568;48.104;11.782;2023-07-29T07:07:51;95126.81;;;18.18;59.94
48156;BME280;35568;48.104;11.782;2023-07-29T07:10:18;95130.65;;;18.06;59.91
48156;BME280;35568;48.104;11.782;2023-07-29T07:12:46;95146.67;;;18.12;60.21
48156;BME280;35568;48.104;11.782;2023-07-29T07:15:13;95149.63;;;18.13;60.29
48156;BME280;35568;48.104;11.782;2023-07-29T07:17:39;95145.77;;;18.27;59.37
48156;BME280;35568;48.104;11.782;2023-07-29T07:20:07;95140.38;;;18.48;59.48
48156;BME280;35568;48.104;11.782;2023-07-29T07:22:34;95136.94;;;18.33;59.40
48156;BME280;35568;48.104;11.782;2023-07-29T07:25:01;95137.87;;;18.43;59.42
48156;BME280;35568;48.104;11.782;2023-07-29T07:27:28;95134.64;;;18.40;59.52
48156;BME280;35568;48.104;11.782;2023-07-29T07:29:55;95134.69;;;18.49;59.53
48156;BME280;35568;48.104;11.782;2023-07-29T07:32:22;95132.56;;;18.40;59.30
48156;BME280;35568;48.104;11.782;2023-07-29T07:34:48;95129.09;;;18.61;59.50
48156;BME280;35568;48.104;11.782;2023-07-29T07:37:16;95132.48;;;18.51;59.81
48156;BME280;35568;48.104;11.782;2023-07-29T07:39:43;95131.15;;;18.85;59.40
48156;BME280;35568;48.104;11.782;2023-07-29T07:42:09;95127.92;;;18.98;59.00
48156;BME280;35568;48.104;11.782;2023-07-29T07:44:36;95119.50;;;18.88;59.38
48156;BME280;35568;48.104;11.782;2023-07-29T07:47:03;95114.45;;;19.32;58.68
48156;BME280;35568;48.104;11.782;2023-07-29T07:49:31;95112.36;;;18.98;58.59
48156;BME280;35568;48.104;11.782;2023-07-29T07:51:58;95104.54;;;17.87;58.68
48156;BME280;35568;48.104;11.782;2023-07-29T07:54:26;95099.57;;;19.58;57.55
48156;BME280;35568;48.104;11.782;2023-07-29T07:56:52;95088.75;;;19.32;57.75
48156;BME280;35568;48.104;11.782;2023-07-29T07:59:19;95077.81;;;19.43;58.00
48156;BME280;35568;48.104;11.782;2023-07-29T08:01:46;95064.95;;;19.85;57.21
48156;BME280;35568;48.104;11.782;2023-07-29T08:04:13;95073.13;;;19.93;57.38
48156;BME280;35568;48.104;11.782;2023-07-29T08:06:39;95077.06;;;19.70;57.08
48156;BME280;35568;48.104;11.782;2023-07-29T08:09:06;95078.44;;;19.86;57.74
48156;BME280;35568;48.104;11.782;2023-07-29T08:11:33;95076.32;;;20.08;57.23
48156;BME280;35568;48.104;11.782;2023-07-29T08:13:59;95078.17;;;20.02;57.16
48156;BME280;35568;48.104;11.782;2023-07-29T08:16:26;95079.86;;;19.83;56.78
48156;BME280;35568;48.104;11.782;2023-07-29T08:18:53;95080.75;;;19.98;57.42
48156;BME280;35568;48.104;11.782;2023-07-29T08:21:20;95073.29;;;20.03;57.02
48156;BME280;35568;48.104;11.782;2023-07-29T08:23:46;95067.76;;;20.16;56.87
48156;BME280;35568;48.104;11.782;2023-07-29T08:26:33;95070.71;;;20.18;56.99
48156;BME280;35568;48.104;11.782;2023-07-29T08:29:01;95073.88;;;20.11;56.34
48156;BME280;35568;48.104;11.782;2023-07-29T08:31:27;95075.77;;;20.41;55.75
48156;BME280;35568;48.104;11.782;2023-07-29T08:33:54;95070.76;;;20.83;55.13
48156;BME280;35568;48.104;11.782;2023-07-29T08:36:21;95070.41;;;20.58;55.04
48156;BME280;35568;48.104;11.782;2023-07-29T08:38:48;95074.09;;;20.64;54.49
48156;BME280;35568;48.104;11.782;2023-07-29T08:41:19;95075.26;;;20.71;54.56
48156;BME280;35568;48.104;11.782;2023-07-29T08:43:52;95074.04;;;20.48;54.42
48156;BME280;35568;48.104;11.782;2023-07-29T08:46:20;95070.23;;;20.80;54.44
48156;BME280;35568;48.104;11.782;2023-07-29T08:48:47;95075.18;;;21.48;53.75
48156;BME280;35568;48.104;11.782;2023-07-29T08:51:15;95077.72;;;21.68;53.77
48156;BME280;35568;48.104;11.782;2023-07-29T08:53:44;95075.41;;;21.19;52.47
48156;BME280;35568;48.104;11.782;2023-07-29T08:56:12;95072.41;;;21.20;52.95
48156;BME280;35568;48.104;11.782;2023-07-29T08:58:39;95075.51;;;21.61;52.82
48156;BME280;35568;48.104;11.782;2023-07-29T09:01:07;95068.96;;;21.51;52.63
48156;BME280;35568;48.104;11.782;2023-07-29T09:03:34;95068.92;;;21.37;52.28
48156;BME280;35568;48.104;11.782;2023-07-29T09:06:02;95073.79;;;21.72;52.44
48156;BME280;35568;48.104;11.782;2023-07-29T09:08:29;95075.94;;;21.68;52.10
48156;BME280;35568;48.104;11.782;2023-07-29T09:10:56;95073.06;;;22.00;51.42
48156;BME280;35568;48.104;11.782;2023-07-29T09:13:23;95065.45;;;22.51;50.63
48156;BME280;35568;48.104;11.782;2023-07-29T09:15:54;95067.13;;;22.81;50.19
48156;BME280;35568;48.104;11.782;2023-07-29T09:18:22;95074.81;;;22.31;50.01
48156;BME280;35568;48.104;11.782;2023-07-29T09:20:50;95080.36;;;22.79;49.66
48156;BME280;35568;48.104;11.782;2023-07-29T09:23:17;95079.90;;;23.35;49.14
48156;BME280;35568;48.104;11.782;2023-07-29T09:25:46;95085.08;;;23.35;48.53
48156;BME280;35568;48.104;11.782;2023-07-29T09:28:15;95081.13;;;24.18;47.57
48156;BME280;35568;48.104;11.782;2023-07-29T09:30:46;95079.17;;;24.62;46.84
48156;BME280;35568;48.104;11.782;2023-07-29T09:33:13;95073.57;;;25.56;45.53
48156;BME280;35568;48.104;11.782;2023-07-29T09:35:40;95074.91;;;26.44;44.12
48156;BME280;35568;48.104;11.782;2023-07-29T09:38:07;95076.58;;;26.72;42.89
48156;BME280;35568;48.104;11.782;2023-07-29T09:40:35;95077.95;;;27.22;42.29
48156;BME280;35568;48.104;11.782;2023-07-29T09:43:04;95075.00;;;27.24;40.71
48156;BME280;35568;48.104;11.782;2023-07-29T09:45:33;95075.29;;;27.48;40.12
48156;BME280;35568;48.104;11.782;2023-07-29T09:48:01;95077.71;;;28.10;39.16
48156;BME280;35568;48.104;11.782;2023-07-29T09:50:29;95070.55;;;27.41;38.59
48156;BME280;35568;48.104;11.782;2023-07-29T09:52:57;95070.30;;;27.64;38.53
48156;BME280;35568;48.104;11.782;2023-07-29T09:55:25;95069.82;;;27.64;38.63
48156;BME280;35568;48.104;11.782;2023-07-29T09:57:56;95063.79;;;28.26;38.97
48156;BME280;35568;48.104;11.782;2023-07-29T10:00:24;95069.13;;;27.61;37.34
48156;BME280;35568;48.104;11.782;2023-07-29T10:02:51;95063.52;;;28.06;37.55
48156;BME280;35568;48.104;11.782;2023-07-29T10:05:18;95061.13;;;28.10;37.15
48156;BME280;35568;48.104;11.782;2023-07-29T10:07:45;95055.95;;;28.06;37.15
48156;BME280;35568;48.104;11.782;2023-07-29T10:10:13;95058.14;;;28.06;35.95
48156;BME280;35568;48.104;11.782;2023-07-29T10:12:40;95056.95;;;27.58;36.88
48156;BME280;35568;48.104;11.782;2023-07-29T10:15:07;95045.70;;;28.03;36.93
48156;BME280;35568;48.104;11.782;2023-07-29T10:17:36;95042.12;;;27.53;36.37
48156;BME280;35568;48.104;11.782;2023-07-29T10:20:05;95040.61;;;26.71;37.69
48156;BME280;35568;48.104;11.782;2023-07-29T10:22:35;95042.46;;;27.35;37.57
48156;BME280;35568;48.104;11.782;2023-07-29T10:25:04;95041.60;;;27.93;36.47
48156;BME280;35568;48.104;11.782;2023-07-29T10:27:48;95034.22;;;28.16;36.06
48156;BME280;35568;48.104;11.782;2023-07-29T10:30:16;95038.35;;;28.61;35.96
48156;BME280;35568;48.104;11.782;2023-07-29T10:32:44;95039.67;;;29.03;34.92
48156;BME280;35568;48.104;11.782;2023-07-29T10:35:12;95040.57;;;28.77;34.56
48156;BME280;35568;48.104;11.782;2023-07-29T10:37:39;95037.63;;;28.56;33.95
48156;BME280;35568;48.104;11.782;2023-07-29T10:40:09;95028.75;;;28.00;36.26
48156;BME280;35568;48.104;11.782;2023-07-29T10:42:38;95027.26;;;28.65;35.57
48156;BME280;35568;48.104;11.782;2023-07-29T10:45:21;95030.49;;;29.17;35.25
48156;BME280;35568;48.104;11.782;2023-07-29T10:47:48;95027.20;;;28.76;33.19
48156;BME280;35568;48.104;11.782;2023-07-29T10:50:19;95015.22;;;29.24;33.52
48156;BME280;35568;48.104;11.782;2023-07-29T10:52:50;95008.28;;;29.87;32.57
48156;BME280;35568;48.104;11.782;2023-07-29T10:55:28;95012.11;;;29.47;33.35
48156;BME280;35568;48.104;11.782;2023-07-29T10:58:29;95004.94;;;29.79;32.24
48156;BME280;35568;48.104;11.782;2023-07-29T11:00:56;95007.49;;;30.08;32.58
48156;BME280;35568;48.104;11.782;2023-07-29T11:03:22;95011.76;;;29.82;32.28
48156;BME280;35568;48.104;11.782;2023-07-29T11:05:51;95003.77;;;29.70;32.09
48156;BME280;35568;48.104;11.782;2023-07-29T11:08:20;95000.32;;;29.95;33.05
48156;BME280;35568;48.104;11.782;2023-07-29T11:11:05;94998.90;;;30.00;32.22
48156;BME280;35568;48.104;11.782;2023-07-29T11:13:34;94994.32;;;31.13;31.19
48156;BME280;35568;48.104;11.782;2023-07-29T11:16:01;94987.68;;;30.54;30.74
48156;BME280;35568;48.104;11.782;2023-07-29T11:18:30;94992.65;;;30.69;31.11
48156;BME280;35568;48.104;11.782;2023-07-29T11:20:59;94997.66;;;29.90;31.45
48156;BME280;35568;48.104;11.782;2023-07-29T11:23:30;95002.30;;;29.95;32.27
48156;BME280;35568;48.104;11.782;2023-07-29T11:25:57;94988.52;;;30.22;31.99
48156;BME280;35568;48.104;11.782;2023-07-29T11:28:25;94988.41;;;30.29;31.09
48156;BME280;35568;48.104;11.782;2023-07-29T11:30:52;94987.12;;;30.00;31.10
48156;BME280;35568;48.104;11.782;2023-07-29T11:33:20;94997.17;;;30.51;31.14
48156;BME280;35568;48.104;11.782;2023-07-29T11:35:47;95012.97;;;30.21;32.03
48156;BME280;35568;48.104;11.782;2023-07-29T11:38:16;94999.29;;;29.13;31.88
48156;BME280;35568;48.104;11.782;2023-07-29T11:40:44;95007.36;;;29.00;32.67
48156;BME280;35568;48.104;11.782;2023-07-29T11:43:19;95005.87;;;28.23;33.22
48156;BME280;35568;48.104;11.782;2023-07-29T11:45:46;95038.71;;;27.26;34.44
48156;BME280;35568;48.104;11.782;2023-07-29T11:48:13;95057.26;;;26.36;35.47
48156;BME280;35568;48.104;11.782;2023-07-29T11:50:40;95037.57;;;26.97;35.22
48156;BME280;35568;48.104;11.782;2023-07-29T11:53:07;95035.51;;;26.60;35.36
48156;BME280;35568;48.104;11.782;2023-07-29T11:55:34;95031.69;;;28.33;32.77
48156;BME280;35568;48.104;11.782;2023-07-29T11:58:01;95039.68;;;29.01;32.39
48156;BME280;35568;48.104;11.782;2023-07-29T12:00:28;95038.17;;;30.22;31.02
48156;BME280;35568;48.104;11.782;2023-07-29T12:02:56;95031.97;;;30.94;30.11
48156;BME280;35568;48.104;11.782;2023-07-29T12:05:24;95027.29;;;29.88;30.19
48156;BME280;35568;48.104;11.782;2023-07-29T12:07:51;95017.92;;;30.22;30.27
48156;BME280;35568;48.104;11.782;2023-07-29T12:10:18;95017.08;;;31.08;29.05
48156;BME280;35568;48.104;11.782;2023-07-29T12:12:46;95009.24;;;32.11;28.61
48156;BME280;35568;48.104;11.782;2023-07-29T12:15:13;95002.85;;;32.63;28.05
48156;BME280;35568;48.104;11.782;2023-07-29T12:17:40;94996.84;;;33.17;26.69
48156;BME280;35568;48.104;11.782;2023-07-29T12:20:09;94992.38;;;32.74;27.20
48156;BME280;35568;48.104;11.782;2023-07-29T12:22:36;94986.91;;;33.86;25.93
48156;BME280;35568;48.104;11.782;2023-07-29T12:25:03;94987.80;;;34.08;26.59
48156;BME280;35568;48.104;11.782;2023-07-29T12:27:31;94983.15;;;34.36;25.36
48156;BME280;35568;48.104;11.782;2023-07-29T12:30:00;94978.49;;;34.36;24.52
48156;BME280;35568;48.104;11.782;2023-07-29T12:32:27;94974.08;;;34.60;24.68
48156;BME280;35568;48.104;11.782;2023-07-29T12:34:54;94972.72;;;34.99;24.24
48156;BME280;35568;48.104;11.782;2023-07-29T12:37:31;94970.26;;;35.79;24.06
48156;BME280;35568;48.104;11.782;2023-07-29T12:39:58;94973.61;;;35.52;23.85
48156;BME280;35568;48.104;11.782;2023-07-29T12:42:25;94969.95;;;36.07;24.33
48156;BME280;35568;48.104;11.782;2023-07-29T12:44:51;94961.55;;;35.57;24.15
48156;BME280;35568;48.104;11.782;2023-07-29T12:47:18;94963.22;;;34.60;25.05
48156;BME280;35568;48.104;11.782;2023-07-29T12:49:45;94971.81;;;33.40;26.34
48156;BME280;35568;48.104;11.782;2023-07-29T12:52:12;94968.62;;;32.40;26.69
48156;BME280;35568;48.104;11.782;2023-07-29T12:54:38;94966.87;;;31.42;28.17